메인 페이지
METAR-TAF:

METAR-TAF

공항 :

Saltillo, 멕시코

위도: 25-27N, 경도: 100-59W, 고도: 1790m

현재 날씨관측

예보는 6 시간 35분 전, 02:48시(UTC)에 발표되었습니다.
북동10kt
온도 27°C
습도 34%
기압 1021 hPa
시정: 16.1km
맑음

METAR: MMIO 300248Z 04010KT 10SM SKC 27/10 A3016

시각: 04:23 (09:23 UTC)

예보

예보는 4 시간 0분 전, 05:23시(UTC)에 발표되었습니다.
예보 대상 시간: 30일 06시부터 31일 06시까지 (UTC)
북동10kt
시정: 10km
맑음
30일 0800시부터 (UTC)
kt
시정: 8.0km
고도 2000ft 상공 구름 보통
연무
일시적
30일 10시부터 30일 14시까지 (UTC)
시정: 3.2km
박무
30일 1700시부터 (UTC)
10kt
시정: 9.7km
고도 2000ft 상공 구름 보통
연무
전환 중
30일 21시부터 30일 23시까지 (UTC)
고도 2000ft 상공 구름 보통, 적란운.
31일 0100시부터 (UTC)
남남서10kt
시정: 10km
고도 2000ft 상공 구름 보통
고도 20000ft 상공 구름 보통

TAF: MMIO 300523Z 3006/3106 04010KT P6SM SKC FM300800 00000KT 5SM HZ SCT020 TEMPO 3010/3014 2SM BR FM301700 36010KT 6SM HZ SCT020 BECMG 3021/3023 SCT020CB FM310100 20010KT P6SM SCT020 SCT200

4,000개 이상의 공항 관측 자료 및 예보 (METAR 및 TAF 보고).

지도상에서 검색 가능한 기상관측소가 노란 점과 빨간 점으로 표시되어 있습니다.

기상관측소 명을 보려면 표시 위로 마우스를 이동하세요.

날씨 관측과 예보를 보려면 클릭하세요.

지도 변경 : 확대하려면 엑스 표시가 있는 녹색 버튼, 축소하려면 빼기 표시가 있는 녹색 버튼, 다음 페이지의 지도를 보려면 녹색 화살표를 클릭하세요.


METAR-TAF: